Wind Star — C6CA9 — position and weather

sailwx.info

Track history (hours):
 
Tides and Currents Weather Stations Pressure Air Temp Water Temp Dewpoint Dewpoint Depression Visibility Wind Speed Wind Dir Waves Ship Positions

Wind Star

Operator: Holland America Line

Last reported at 2014-Nov-09 23:33 UTC. Time now 2014-Nov-26 13:57 UTC.
Position N 37°45' W 009°31'.
Warning: this ship's position is 16 days out of date.

Length 135 m; draft 4.1 m.

Type: Ship. MMSI: 309163000.

Date/timePositionNaut miles runAvg speedWind from/ knotsBaromVisibWave heightAir tempDewpointWater temp
2014-Nov-09 23:33N 37°45' W 009°31'10 9.7
2014-Nov-09 22:33N 37°55' W 009°29'1010.3
2014-Nov-09 21:33N 38°05' W 009°28'1310.1
2014-Nov-09 20:13N 38°18' W 009°26'19 9.9
2014-Nov-09 18:15N 38°37' W 009°22'710.1
2014-Nov-09 17:33N 38°41' W 009°15'4 3.8
2014-Nov-09 16:32N 38°42' W 009°10'0 0.0
2014-Nov-09 15:32N 38°42' W 009°10'0 0.0
2014-Nov-09 14:32N 38°42' W 009°10'0 0.0
2014-Nov-09 13:32N 38°42' W 009°10'0 0.0
2014-Nov-09 12:32N 38°42' W 009°10'0 0.0
2014-Nov-09 11:32N 38°42' W 009°10'0 0.0
2014-Nov-09 10:32N 38°42' W 009°10'0 0.0
2014-Nov-09 09:32N 38°42' W 009°10'0 0.0
2014-Nov-09 08:32N 38°42' W 009°10'0 0.0
2014-Nov-09 07:32N 38°42' W 009°10'0 0.0
2014-Nov-09 06:32N 38°42' W 009°10'0 0.0
2014-Nov-09 05:32N 38°42' W 009°10'0 0.0
2014-Nov-09 04:32N 38°42' W 009°10'0 0.0
2014-Nov-09 03:32N 38°42' W 009°10'0 0.0
2014-Nov-09 02:32N 38°42' W 009°10'0 0.0
2014-Nov-09 01:34N 38°42' W 009°10'1 0.9
2014-Nov-09 00:34N 38°42' W 009°11'8 8.3
2014-Nov-08 23:33N 38°39' W 009°21'16 6.8
2014-Nov-08 21:10N 38°22' W 009°23'4 6.0
2014-Nov-08 20:33N 38°19' W 009°23'5 5.5
2014-Nov-08 19:33N 38°13' W 009°22'6 5.6
2014-Nov-08 18:33N 38°08' W 009°22'7 7.0
2014-Nov-08 17:34N 38°01' W 009°22'7 7.3
2014-Nov-08 16:33N 37°53' W 009°21'8 8.4
2014-Nov-08 15:33N 37°45' W 009°21'9 9.1
2014-Nov-08 14:33N 37°36' W 009°21'57 7.0
2014-Nov-08 06:22N 36°43' W 008°53'8 8.5
2014-Nov-08 05:29N 36°42' W 008°43'11 9.0
2014-Nov-08 04:16N 36°42' W 008°30'8 9.6
2014-Nov-08 03:25N 36°41' W 008°20'9 9.9
2014-Nov-08 02:33N 36°41' W 008°09'133 3.5
2014-Nov-06 13:13N 35°58' W 005°34'6 8.0
2014-Nov-06 12:30N 35°60' W 005°27'8 8.2
2014-Nov-06 11:32N 36°07' W 005°23'1 0.2
2014-Nov-06 05:30N 36°06' W 005°22'5 5.1
2014-Nov-06 04:33N 36°06' W 005°16'  
2014-Nov-03 14:33N 37°32' W 000°49'8 8.5
2014-Nov-03 13:33N 37°33' W 000°38'9 8.8
2014-Nov-03 12:33N 37°40' W 000°31'1210.5
2014-Nov-03 11:25N 37°51' W 000°26'910.2
2014-Nov-03 10:33N 37°59' W 000°23'226 5.5
2014-Nov-01 17:32N 41°13' E 002°07'9 0.8
2014-Nov-01 05:12N 41°22' E 002°11'6 6.0
2014-Nov-01 04:11N 41°21' E 002°19'28 7.6
2014-Nov-01 00:29N 41°34' E 002°52'8 8.0
2014-Oct-31 23:30N 41°39' E 003°01'9 9.7
2014-Oct-31 22:33N 41°45' E 003°10'10 9.8
2014-Oct-31 21:32N 41°52' E 003°19'1010.0
2014-Oct-31 20:33N 42°02' E 003°23'1110.5
2014-Oct-31 19:33N 42°12' E 003°25'1110.8
2014-Oct-31 18:32N 42°23' E 003°24'10 9.8
2014-Oct-31 17:33N 42°31' E 003°17'7 7.1
2014-Oct-31 16:30N 42°32' E 003°07'1 0.3
2014-Oct-31 14:24N 42°31' E 003°07'0 0.0
2014-Oct-31 10:12N 42°31' E 003°07'0 0.0
2014-Oct-31 07:23N 42°31' E 003°07'74 9.5
2014-Oct-30 23:33N 43°02' E 004°39'  
Track history (hours):
 
Tides and Currents Weather Stations Pressure Air Temp Water Temp Dewpoint Dewpoint Depression Visibility Wind Speed Wind Dir Waves Ship Positions

Wind Star

Operator: Holland America Line

Last reported at 2014-Nov-09 23:33 UTC. Time now 2014-Nov-26 13:57 UTC.
Position N 37°45' W 009°31'.
Warning: this ship's position is 16 days out of date.

Length 135 m; draft 4.1 m.

Type: Ship. MMSI: 309163000.

Date/timePositionNaut miles runAvg speedWind from/ knotsBaromVisibWave heightAir tempDewpointWater temp
2014-Nov-09 23:33N 37°45' W 009°31'10 9.7
2014-Nov-09 22:33N 37°55' W 009°29'1010.3
2014-Nov-09 21:33N 38°05' W 009°28'1310.1
2014-Nov-09 20:13N 38°18' W 009°26'19 9.9
2014-Nov-09 18:15N 38°37' W 009°22'710.1
2014-Nov-09 17:33N 38°41' W 009°15'4 3.8
2014-Nov-09 16:32N 38°42' W 009°10'0 0.0
2014-Nov-09 15:32N 38°42' W 009°10'0 0.0
2014-Nov-09 14:32N 38°42' W 009°10'0 0.0
2014-Nov-09 13:32N 38°42' W 009°10'0 0.0
2014-Nov-09 12:32N 38°42' W 009°10'0 0.0
2014-Nov-09 11:32N 38°42' W 009°10'0 0.0
2014-Nov-09 10:32N 38°42' W 009°10'0 0.0
2014-Nov-09 09:32N 38°42' W 009°10'0 0.0
2014-Nov-09 08:32N 38°42' W 009°10'0 0.0
2014-Nov-09 07:32N 38°42' W 009°10'0 0.0
2014-Nov-09 06:32N 38°42' W 009°10'0 0.0
2014-Nov-09 05:32N 38°42' W 009°10'0 0.0
2014-Nov-09 04:32N 38°42' W 009°10'0 0.0
2014-Nov-09 03:32N 38°42' W 009°10'0 0.0
2014-Nov-09 02:32N 38°42' W 009°10'0 0.0
2014-Nov-09 01:34N 38°42' W 009°10'1 0.9
2014-Nov-09 00:34N 38°42' W 009°11'8 8.3
2014-Nov-08 23:33N 38°39' W 009°21'16 6.8
2014-Nov-08 21:10N 38°22' W 009°23'4 6.0
2014-Nov-08 20:33N 38°19' W 009°23'5 5.5
2014-Nov-08 19:33N 38°13' W 009°22'6 5.6
2014-Nov-08 18:33N 38°08' W 009°22'7 7.0
2014-Nov-08 17:34N 38°01' W 009°22'7 7.3
2014-Nov-08 16:33N 37°53' W 009°21'8 8.4
2014-Nov-08 15:33N 37°45' W 009°21'9 9.1
2014-Nov-08 14:33N 37°36' W 009°21'57 7.0
2014-Nov-08 06:22N 36°43' W 008°53'8 8.5
2014-Nov-08 05:29N 36°42' W 008°43'11 9.0
2014-Nov-08 04:16N 36°42' W 008°30'8 9.6
2014-Nov-08 03:25N 36°41' W 008°20'9 9.9
2014-Nov-08 02:33N 36°41' W 008°09'133 3.5
2014-Nov-06 13:13N 35°58' W 005°34'6 8.0
2014-Nov-06 12:30N 35°60' W 005°27'8 8.2
2014-Nov-06 11:32N 36°07' W 005°23'1 0.2
2014-Nov-06 05:30N 36°06' W 005°22'5 5.1
2014-Nov-06 04:33N 36°06' W 005°16'  
2014-Nov-03 14:33N 37°32' W 000°49'8 8.5
2014-Nov-03 13:33N 37°33' W 000°38'9 8.8
2014-Nov-03 12:33N 37°40' W 000°31'1210.5
2014-Nov-03 11:25N 37°51' W 000°26'910.2
2014-Nov-03 10:33N 37°59' W 000°23'226 5.5
2014-Nov-01 17:32N 41°13' E 002°07'9 0.8
2014-Nov-01 05:12N 41°22' E 002°11'6 6.0
2014-Nov-01 04:11N 41°21' E 002°19'28 7.6
2014-Nov-01 00:29N 41°34' E 002°52'8 8.0
2014-Oct-31 23:30N 41°39' E 003°01'9 9.7
2014-Oct-31 22:33N 41°45' E 003°10'10 9.8
2014-Oct-31 21:32N 41°52' E 003°19'1010.0
2014-Oct-31 20:33N 42°02' E 003°23'1110.5
2014-Oct-31 19:33N 42°12' E 003°25'1110.8
2014-Oct-31 18:32N 42°23' E 003°24'10 9.8
2014-Oct-31 17:33N 42°31' E 003°17'7 7.1
2014-Oct-31 16:30N 42°32' E 003°07'1 0.3
2014-Oct-31 14:24N 42°31' E 003°07'0 0.0
2014-Oct-31 10:12N 42°31' E 003°07'0 0.0
2014-Oct-31 07:23N 42°31' E 003°07'74 9.5
2014-Oct-30 23:33N 43°02' E 004°39'  

Dump ship's entire track history